createdAt,value
2022-10-10T00:01:28.654Z,69.88
2022-10-10T00:03:56.062Z,69.55
2022-10-10T00:06:23.662Z,69.61
2022-10-10T00:08:51.260Z,69.21
2022-10-10T00:11:20.626Z,69.15
2022-10-10T00:13:48.371Z,69.23
2022-10-10T00:16:15.876Z,69.27
2022-10-10T00:18:43.311Z,69.60
2022-10-10T00:21:11.016Z,69.38
2022-10-10T00:23:38.462Z,68.92
2022-10-10T00:26:08.998Z,68.96
2022-10-10T00:28:40.387Z,69.16
2022-10-10T00:31:09.340Z,69.46
2022-10-10T00:33:37.558Z,69.07
2022-10-10T00:36:06.703Z,69.15
2022-10-10T00:38:34.484Z,68.79
2022-10-10T00:41:02.168Z,68.92
2022-10-10T00:43:31.328Z,68.58
2022-10-10T00:45:59.071Z,68.48
2022-10-10T00:48:36.224Z,68.62
2022-10-10T00:51:11.770Z,68.66
2022-10-10T00:53:46.479Z,68.28
2022-10-10T00:56:15.517Z,68.29
2022-10-10T00:58:46.493Z,68.36
2022-10-10T01:01:13.596Z,68.12
2022-10-10T01:03:40.860Z,68.51
2022-10-10T01:06:08.443Z,68.33
2022-10-10T01:08:36.354Z,68.05
2022-10-10T01:11:21.527Z,68.37
2022-10-10T01:14:16.068Z,68.54
2022-10-10T01:17:18.263Z,68.67
2022-10-10T01:20:22.582Z,68.40
2022-10-10T01:23:23.804Z,68.42
2022-10-10T01:26:09.149Z,68.20
2022-10-10T01:29:02.868Z,68.22
2022-10-10T01:31:33.540Z,67.83
2022-10-10T01:34:17.346Z,68.08
2022-10-10T01:37:07.337Z,68.22
2022-10-10T01:40:03.693Z,68.45
2022-10-10T01:42:53.596Z,68.11
2022-10-10T01:45:21.239Z,67.98
2022-10-10T01:47:50.023Z,67.70
2022-10-10T01:50:22.225Z,67.56
2022-10-10T01:53:10.428Z,67.83
2022-10-10T01:55:52.878Z,67.64
2022-10-10T01:58:22.810Z,67.66
2022-10-10T02:01:04.156Z,67.62
2022-10-10T02:03:37.964Z,67.68
2022-10-10T02:06:12.768Z,67.44
2022-10-10T02:08:49.435Z,68.18
2022-10-10T02:11:16.522Z,67.67
2022-10-10T02:13:56.064Z,67.70
2022-10-10T02:16:28.100Z,66.98
2022-10-10T02:18:57.996Z,67.69
2022-10-10T02:21:25.299Z,67.36
2022-10-10T02:23:55.882Z,66.88
2022-10-10T02:26:25.249Z,67.04
2022-10-10T02:29:10.575Z,67.37
2022-10-10T02:32:00.200Z,66.97
2022-10-10T02:34:33.820Z,66.94
2022-10-10T02:37:07.505Z,67.04
2022-10-10T02:39:39.879Z,67.47
2022-10-10T02:42:10.002Z,66.89
2022-10-10T02:44:38.994Z,67.27
2022-10-10T02:47:07.041Z,66.90
2022-10-10T02:49:35.376Z,67.28
2022-10-10T02:52:03.714Z,67.05
2022-10-10T02:54:30.997Z,66.66
2022-10-10T02:56:58.144Z,66.73
2022-10-10T02:59:25.175Z,67.37
2022-10-10T03:01:52.249Z,67.05
2022-10-10T03:04:19.342Z,66.89
2022-10-10T03:06:46.782Z,66.80
2022-10-10T03:09:13.884Z,66.82
2022-10-10T03:11:40.943Z,67.03
2022-10-10T03:14:08.003Z,66.78
2022-10-10T03:16:35.034Z,66.88
2022-10-10T03:19:03.533Z,67.01
2022-10-10T03:21:30.548Z,66.08
2022-10-10T03:23:57.692Z,66.86
2022-10-10T03:26:24.753Z,67.07
2022-10-10T03:28:52.026Z,67.02
2022-10-10T03:31:19.194Z,67.14
2022-10-10T03:33:46.375Z,67.31
2022-10-10T03:36:13.564Z,67.25
2022-10-10T03:38:41.132Z,67.26
2022-10-10T03:41:08.370Z,66.91
2022-10-10T03:43:35.446Z,66.90
2022-10-10T03:46:02.364Z,66.82
2022-10-10T03:48:29.526Z,66.82
2022-10-10T03:50:56.568Z,67.23
2022-10-10T03:53:23.622Z,67.17
2022-10-10T03:55:50.722Z,67.63
2022-10-10T03:58:21.512Z,67.26
2022-10-10T04:00:56.356Z,67.17
2022-10-10T04:03:24.077Z,66.51
2022-10-10T04:05:52.369Z,65.96
2022-10-10T04:08:20.011Z,65.43
2022-10-10T04:10:51.835Z,65.55
2022-10-10T04:13:19.360Z,65.53
2022-10-10T04:15:46.563Z,65.07
2022-10-10T04:18:13.905Z,64.82
2022-10-10T04:20:40.909Z,64.96
2022-10-10T04:23:07.907Z,64.98
2022-10-10T04:25:34.970Z,64.50
2022-10-10T04:28:02.142Z,64.66
2022-10-10T04:30:35.129Z,65.22
2022-10-10T04:33:02.204Z,64.91
2022-10-10T04:35:29.362Z,64.49
2022-10-10T04:37:56.451Z,64.51
2022-10-10T04:40:26.628Z,64.20
2022-10-10T04:42:55.128Z,64.12
2022-10-10T04:45:26.569Z,64.57
2022-10-10T04:47:54.838Z,64.26
2022-10-10T04:50:23.149Z,64.16
2022-10-10T04:52:50.454Z,65.03
2022-10-10T04:55:18.227Z,64.55
2022-10-10T04:57:45.267Z,64.67
2022-10-10T05:00:14.048Z,64.56
2022-10-10T05:02:41.257Z,64.65
2022-10-10T05:05:09.172Z,64.30
2022-10-10T05:07:36.283Z,64.50
2022-10-10T05:10:04.104Z,64.12
2022-10-10T05:12:31.144Z,64.51
2022-10-10T05:14:58.217Z,63.97
2022-10-10T05:17:25.449Z,63.87
2022-10-10T05:19:52.553Z,63.80
2022-10-10T05:22:19.502Z,63.71
2022-10-10T05:24:46.434Z,64.16
2022-10-10T05:27:13.430Z,63.93
2022-10-10T05:29:40.510Z,63.40
2022-10-10T05:32:10.283Z,63.82
2022-10-10T05:34:38.523Z,63.01
2022-10-10T05:37:05.769Z,63.03
2022-10-10T05:39:32.853Z,63.29
2022-10-10T05:41:59.830Z,63.09
2022-10-10T05:44:27.164Z,62.55
2022-10-10T05:46:54.322Z,62.31
2022-10-10T05:49:21.445Z,63.09
2022-10-10T05:51:48.501Z,62.69
2022-10-10T05:54:15.476Z,62.39
2022-10-10T05:56:42.509Z,62.43
2022-10-10T05:59:09.612Z,62.46
2022-10-10T06:01:37.222Z,62.12
2022-10-10T06:04:04.513Z,61.43
2022-10-10T06:06:31.821Z,62.15
2022-10-10T06:08:59.700Z,62.01
2022-10-10T06:11:26.870Z,61.74
2022-10-10T06:13:57.415Z,61.75
2022-10-10T06:16:26.646Z,62.24
2022-10-10T06:18:56.749Z,62.47
2022-10-10T06:21:25.246Z,61.54
2022-10-10T06:23:52.646Z,61.85
2022-10-10T06:26:19.965Z,62.09
2022-10-10T06:28:47.163Z,61.70
2022-10-10T06:31:15.794Z,61.45
2022-10-10T06:33:45.548Z,59.23
2022-10-10T06:36:14.365Z,57.57
2022-10-10T06:38:44.775Z,55.97
2022-10-10T06:41:12.989Z,54.28
2022-10-10T06:43:41.491Z,50.81
2022-10-10T06:46:09.801Z,46.72
2022-10-10T06:48:36.983Z,47.10
2022-10-10T06:51:07.855Z,47.48
2022-10-10T06:53:35.877Z,45.84
2022-10-10T06:56:03.443Z,41.49
2022-10-10T06:58:30.691Z,40.54
2022-10-10T07:01:00.407Z,40.80
2022-10-10T07:03:28.967Z,39.27
2022-10-10T07:05:58.216Z,40.44
2022-10-10T07:08:26.206Z,40.28
2022-10-10T07:10:53.217Z,40.95
2022-10-10T07:13:20.580Z,42.07
2022-10-10T07:15:47.725Z,42.62
2022-10-10T07:18:15.000Z,43.81
2022-10-10T07:20:42.001Z,45.94
2022-10-10T07:23:09.258Z,45.67
2022-10-10T07:25:39.651Z,45.44
2022-10-10T07:28:07.934Z,44.79
2022-10-10T07:30:40.722Z,45.09
2022-10-10T07:33:07.776Z,45.03
2022-10-10T07:35:34.854Z,44.82
2022-10-10T07:38:01.883Z,45.72
2022-10-10T07:40:29.184Z,46.23
2022-10-10T07:42:56.374Z,46.99
2022-10-10T07:45:23.496Z,46.30
2022-10-10T07:47:53.222Z,46.90
2022-10-10T07:50:20.741Z,46.65
2022-10-10T07:52:47.645Z,45.61
2022-10-10T07:55:14.702Z,44.79
2022-10-10T07:57:41.785Z,43.19
2022-10-10T08:00:10.431Z,42.23
2022-10-10T08:02:40.532Z,40.25
2022-10-10T08:05:07.940Z,38.29
2022-10-10T08:07:35.309Z,35.84
2022-10-10T08:10:02.659Z,32.59
2022-10-10T08:12:31.300Z,30.71
2022-10-10T08:14:59.686Z,29.35
2022-10-10T08:17:26.886Z,27.69
2022-10-10T08:19:54.021Z,25.99
2022-10-10T08:22:20.999Z,24.70
2022-10-10T08:24:48.111Z,22.82
2022-10-10T08:27:17.829Z,22.39
2022-10-10T08:29:45.101Z,21.64
2022-10-10T08:32:12.199Z,22.78
2022-10-10T08:34:39.166Z,21.69
2022-10-10T08:37:06.103Z,22.07
2022-10-10T08:39:33.413Z,21.40
2022-10-10T08:42:02.806Z,22.25
2022-10-10T08:44:32.914Z,20.17
2022-10-10T08:47:11.202Z,20.49
2022-10-10T08:49:50.161Z,21.78
2022-10-10T08:52:55.359Z,18.27
2022-10-10T08:55:34.584Z,20.86
2022-10-10T08:58:12.412Z,20.76
2022-10-10T09:00:45.951Z,19.71
2022-10-10T09:03:31.061Z,20.06
2022-10-10T09:06:17.690Z,21.45
2022-10-10T09:08:59.779Z,21.66
2022-10-10T09:11:55.662Z,23.38
2022-10-10T09:14:37.706Z,23.86
2022-10-10T09:20:09.791Z,26.82
2022-10-10T09:22:48.717Z,28.27
2022-10-10T09:25:26.784Z,30.00
2022-10-10T09:28:20.584Z,31.26
2022-10-10T09:30:52.854Z,30.58
2022-10-10T09:33:28.426Z,31.03
2022-10-10T09:35:57.961Z,31.51
2022-10-10T09:38:57.545Z,32.66
2022-10-10T09:41:39.574Z,33.24
2022-10-10T09:44:11.687Z,33.75
2022-10-10T09:46:38.845Z,33.44
2022-10-10T09:49:06.212Z,33.76
2022-10-10T09:51:34.491Z,34.00
2022-10-10T09:54:02.399Z,34.19
2022-10-10T09:56:54.850Z,34.20
2022-10-10T09:59:42.006Z,34.40
2022-10-10T10:02:14.054Z,35.53
2022-10-10T10:04:41.114Z,35.41
2022-10-10T10:07:29.359Z,35.14
2022-10-10T10:10:11.055Z,36.22
2022-10-10T10:12:41.516Z,36.23
2022-10-10T10:15:21.986Z,36.46
2022-10-10T10:18:17.084Z,36.31
2022-10-10T10:20:46.422Z,38.60
2022-10-10T10:23:33.231Z,38.15
2022-10-10T10:26:07.087Z,38.02
2022-10-10T10:28:41.518Z,38.55
2022-10-10T10:31:31.187Z,38.39
2022-10-10T10:34:29.022Z,40.43
2022-10-10T10:36:56.035Z,39.86
2022-10-10T10:40:09.473Z,39.11
2022-10-10T10:43:11.447Z,40.54
2022-10-10T10:45:49.340Z,39.81
2022-10-10T10:48:39.700Z,41.02
2022-10-10T10:51:18.895Z,40.15
2022-10-10T10:53:54.811Z,40.82
2022-10-10T10:56:38.363Z,40.77
2022-10-10T11:02:07.820Z,42.15
2022-10-10T11:05:24.861Z,41.91
2022-10-10T11:07:53.336Z,42.52
2022-10-10T11:10:43.425Z,41.92
2022-10-10T11:13:29.177Z,42.90
2022-10-10T11:16:47.888Z,42.21
2022-10-10T11:19:15.198Z,41.18
2022-10-10T11:21:46.094Z,41.69
2022-10-10T11:24:30.435Z,42.22
2022-10-10T11:27:02.716Z,41.94
2022-10-10T11:29:49.229Z,41.85
2022-10-10T11:32:22.333Z,41.37
2022-10-10T11:35:16.398Z,40.44
2022-10-10T11:37:52.289Z,41.16
2022-10-10T11:40:36.777Z,41.43
2022-10-10T11:43:08.465Z,40.68
2022-10-10T11:45:45.488Z,42.02
2022-10-10T11:48:18.367Z,41.55
2022-10-10T11:50:49.900Z,41.49
2022-10-10T11:53:32.365Z,41.24
2022-10-10T11:56:10.466Z,41.61
2022-10-10T11:58:44.574Z,41.83
2022-10-10T12:01:21.264Z,41.74
2022-10-10T12:03:51.409Z,42.37
2022-10-10T12:06:33.538Z,42.72
2022-10-10T12:09:03.967Z,42.14
2022-10-10T12:11:45.465Z,41.80
2022-10-10T12:14:18.261Z,42.22
2022-10-10T12:16:46.193Z,42.18
2022-10-10T12:19:19.492Z,42.91
2022-10-10T12:22:02.551Z,42.58
2022-10-10T12:24:38.665Z,42.56
2022-10-10T12:27:07.903Z,42.06
2022-10-10T12:29:56.832Z,41.78
2022-10-10T12:32:40.259Z,42.21
2022-10-10T12:35:27.497Z,42.58
2022-10-10T12:38:09.778Z,42.39
2022-10-10T12:41:10.385Z,42.93
2022-10-10T12:43:45.270Z,42.78
2022-10-10T12:46:26.468Z,42.52
2022-10-10T12:48:58.647Z,42.45
2022-10-10T12:51:26.815Z,42.83
2022-10-10T12:53:57.496Z,42.81
2022-10-10T12:56:38.758Z,42.95
2022-10-10T12:59:16.671Z,43.38
2022-10-10T13:01:47.087Z,43.49
2022-10-10T13:04:17.719Z,43.37
2022-10-10T13:06:47.159Z,43.47
2022-10-10T13:09:21.539Z,43.85
2022-10-10T13:12:01.859Z,43.44
2022-10-10T13:14:44.324Z,43.83
2022-10-10T13:17:23.932Z,43.80
2022-10-10T13:19:52.332Z,44.29
2022-10-10T13:22:20.763Z,44.51
2022-10-10T13:24:48.916Z,44.65
2022-10-10T13:27:28.490Z,44.29
2022-10-10T13:29:56.111Z,45.13
2022-10-10T13:32:29.101Z,44.26
2022-10-10T13:34:59.862Z,45.11
2022-10-10T13:37:27.975Z,45.39
2022-10-10T13:39:55.745Z,44.82
2022-10-10T13:42:38.978Z,44.60
2022-10-10T13:45:30.200Z,44.82
2022-10-10T13:48:00.699Z,45.12
2022-10-10T13:50:33.258Z,45.07
2022-10-10T13:53:32.271Z,45.76
2022-10-10T13:56:09.185Z,45.88
2022-10-10T13:59:05.213Z,46.95
2022-10-10T14:01:49.512Z,45.80
2022-10-10T14:04:19.236Z,46.11
2022-10-10T14:06:55.388Z,46.82
2022-10-10T14:09:25.714Z,45.55
2022-10-10T14:11:54.960Z,45.78
2022-10-10T14:14:32.455Z,46.14
2022-10-10T14:17:04.739Z,46.66
2022-10-10T14:19:33.257Z,46.35
2022-10-10T14:22:00.347Z,46.56
2022-10-10T14:24:27.448Z,47.03
2022-10-10T14:26:54.538Z,47.13
2022-10-10T14:29:22.013Z,47.05
2022-10-10T14:31:49.152Z,47.81
2022-10-10T14:34:16.506Z,47.74
2022-10-10T14:36:50.332Z,48.34
2022-10-10T14:39:18.841Z,48.02
2022-10-10T14:41:46.756Z,47.91
2022-10-10T14:44:13.744Z,48.25
2022-10-10T14:46:41.777Z,48.34
2022-10-10T14:49:19.618Z,48.06
2022-10-10T14:51:48.059Z,49.71
2022-10-10T14:54:15.153Z,49.20
2022-10-10T14:57:06.789Z,49.32
2022-10-10T14:59:47.420Z,50.02
2022-10-10T15:02:24.090Z,50.00
2022-10-10T15:04:51.347Z,49.77
2022-10-10T15:07:19.298Z,50.90
2022-10-10T15:12:38.449Z,51.17
2022-10-10T15:15:06.768Z,51.39
2022-10-10T15:17:34.611Z,51.81
2022-10-10T15:20:03.500Z,52.11
2022-10-10T15:22:31.072Z,51.92
2022-10-10T15:24:58.111Z,52.12
2022-10-10T15:27:25.348Z,52.81
2022-10-10T15:29:52.288Z,52.20
2022-10-10T15:32:19.272Z,52.26
2022-10-10T15:34:50.177Z,52.50
2022-10-10T15:37:17.832Z,52.50
2022-10-10T15:39:45.906Z,53.21
2022-10-10T15:42:18.592Z,53.24
2022-10-10T15:44:49.623Z,53.69
2022-10-10T15:47:17.873Z,53.74
2022-10-10T15:49:45.361Z,53.82
2022-10-10T15:52:12.675Z,53.97
2022-10-10T15:54:39.828Z,53.50
2022-10-10T15:57:07.017Z,54.16
2022-10-10T15:59:36.832Z,53.95
2022-10-10T16:02:06.300Z,54.41
2022-10-10T16:04:33.579Z,55.01
2022-10-10T16:09:47.653Z,54.59
2022-10-10T16:12:14.727Z,54.79
2022-10-10T16:14:41.798Z,55.52
2022-10-10T16:17:08.820Z,54.78
2022-10-10T16:19:35.819Z,55.38
2022-10-10T16:22:02.963Z,55.76
2022-10-10T16:24:30.710Z,56.03
2022-10-10T16:26:59.585Z,55.49
2022-10-10T16:29:26.633Z,56.20
2022-10-10T16:31:53.653Z,56.08
2022-10-10T16:34:21.842Z,56.28
2022-10-10T16:36:48.884Z,55.79
2022-10-10T16:39:15.958Z,57.08
2022-10-10T16:41:48.192Z,56.65
2022-10-10T16:44:16.243Z,56.16
2022-10-10T16:46:43.587Z,57.46
2022-10-10T16:49:12.908Z,57.00
2022-10-10T16:51:40.181Z,56.86
2022-10-10T16:54:07.581Z,57.47
2022-10-10T16:56:35.485Z,57.32
2022-10-10T16:59:03.000Z,58.08
2022-10-10T17:01:30.543Z,57.52
2022-10-10T17:04:02.046Z,58.29
2022-10-10T17:06:35.341Z,58.06
2022-10-10T17:09:02.985Z,58.36
2022-10-10T17:11:30.351Z,58.29
2022-10-10T17:13:58.079Z,57.93
2022-10-10T17:17:28.744Z,58.33
2022-10-10T17:19:14.679Z,58.80
2022-10-10T17:21:41.663Z,58.91
2022-10-10T17:24:08.747Z,58.85
2022-10-10T17:26:35.781Z,58.33
2022-10-10T17:29:02.907Z,58.63
2022-10-10T17:31:29.942Z,58.95
2022-10-10T17:33:57.785Z,59.28
2022-10-10T17:36:26.832Z,59.81
2022-10-10T17:39:00.469Z,59.23
2022-10-10T17:41:28.721Z,59.25
2022-10-10T17:43:56.187Z,59.45
2022-10-10T17:46:35.278Z,59.39
2022-10-10T17:49:05.901Z,59.96
2022-10-10T17:51:34.637Z,59.60
2022-10-10T17:54:02.855Z,60.19
2022-10-10T17:56:30.499Z,59.67
2022-10-10T17:58:59.669Z,60.11
2022-10-10T18:01:26.937Z,59.98
2022-10-10T18:03:53.999Z,60.56
2022-10-10T18:06:22.764Z,60.31
2022-10-10T18:08:51.771Z,60.59
2022-10-10T18:11:21.328Z,60.67
2022-10-10T18:13:48.448Z,60.48
2022-10-10T18:16:19.086Z,61.09
2022-10-10T18:18:51.056Z,61.12
2022-10-10T18:21:23.158Z,60.59
2022-10-10T18:23:50.560Z,61.28
2022-10-10T18:26:20.727Z,60.90
2022-10-10T18:28:48.635Z,61.77
2022-10-10T18:31:18.096Z,61.26
2022-10-10T18:33:45.830Z,61.74
2022-10-10T18:36:19.669Z,61.52
2022-10-10T18:38:48.667Z,61.77
2022-10-10T18:41:20.470Z,62.02
2022-10-10T18:43:49.175Z,62.40
2022-10-10T18:46:20.616Z,62.36
2022-10-10T18:48:53.552Z,62.41
2022-10-10T18:51:27.256Z,62.33
2022-10-10T18:54:03.919Z,62.43
2022-10-10T18:56:32.779Z,62.72
2022-10-10T18:59:02.647Z,62.56
2022-10-10T19:01:33.345Z,62.70
2022-10-10T19:04:00.467Z,62.99
2022-10-10T19:06:27.401Z,63.46
2022-10-10T19:08:56.552Z,63.48
2022-10-10T19:11:31.756Z,63.55
2022-10-10T19:14:00.936Z,63.99
2022-10-10T19:16:28.299Z,64.04
2022-10-10T19:18:58.644Z,64.41
2022-10-10T19:21:29.182Z,64.33
2022-10-10T19:23:56.363Z,64.47
2022-10-10T19:26:23.472Z,64.65
2022-10-10T19:28:50.456Z,64.21
2022-10-10T19:31:19.294Z,64.61
2022-10-10T19:33:52.144Z,64.48
2022-10-10T19:36:19.262Z,64.88
2022-10-10T19:38:46.650Z,64.78
2022-10-10T19:41:14.442Z,64.61
2022-10-10T19:43:42.915Z,64.32
2022-10-10T19:46:13.005Z,64.52
2022-10-10T19:48:40.544Z,64.89
2022-10-10T19:51:10.125Z,65.14
2022-10-10T19:53:38.121Z,65.11
2022-10-10T19:56:08.861Z,64.84
2022-10-10T19:58:37.160Z,65.01
2022-10-10T20:01:13.926Z,65.26
2022-10-10T20:03:41.402Z,65.14
2022-10-10T20:06:08.535Z,65.64
2022-10-10T20:08:35.628Z,64.77
2022-10-10T20:11:02.858Z,65.38
2022-10-10T20:13:32.175Z,65.61
2022-10-10T20:16:01.656Z,65.43
2022-10-10T20:18:29.760Z,65.29
2022-10-10T20:20:56.713Z,65.75
2022-10-10T20:23:25.155Z,65.70
2022-10-10T20:25:52.823Z,66.05
2022-10-10T20:28:20.958Z,65.83
2022-10-10T20:30:50.841Z,65.97
2022-10-10T20:33:19.620Z,66.42
2022-10-10T20:35:49.356Z,65.82
2022-10-10T20:38:19.322Z,66.26
2022-10-10T20:40:46.443Z,66.78
2022-10-10T20:43:14.879Z,66.57
2022-10-10T20:45:42.035Z,66.11
2022-10-10T20:48:10.067Z,65.99
2022-10-10T20:50:38.183Z,65.55
2022-10-10T20:53:06.698Z,65.23
2022-10-10T20:55:33.832Z,65.67
2022-10-10T20:58:01.108Z,65.75
2022-10-10T21:00:28.081Z,65.77
2022-10-10T21:02:56.162Z,66.14
2022-10-10T21:05:23.349Z,66.03
2022-10-10T21:07:50.388Z,66.07
2022-10-10T21:10:17.374Z,66.53
2022-10-10T21:12:44.294Z,66.70
2022-10-10T21:15:11.562Z,66.97
2022-10-10T21:17:38.988Z,66.65
2022-10-10T21:20:07.372Z,66.43
2022-10-10T21:22:34.339Z,66.49
2022-10-10T21:25:01.389Z,66.72
2022-10-10T21:27:30.318Z,66.77
2022-10-10T21:29:57.204Z,67.10
2022-10-10T21:32:26.513Z,67.00
2022-10-10T21:34:56.415Z,67.32
2022-10-10T21:37:23.983Z,67.65
2022-10-10T21:39:50.949Z,67.61
2022-10-10T21:42:18.108Z,67.83
2022-10-10T21:44:45.121Z,67.41
2022-10-10T21:47:12.104Z,67.80
2022-10-10T21:49:39.153Z,67.99
2022-10-10T21:52:06.075Z,67.96
2022-10-10T21:54:32.958Z,67.86
2022-10-10T21:56:59.911Z,67.82
2022-10-10T21:59:30.377Z,67.55
2022-10-10T22:01:57.610Z,68.15
2022-10-10T22:04:28.828Z,68.09
2022-10-10T22:06:56.433Z,68.43
2022-10-10T22:09:23.476Z,68.35
2022-10-10T22:11:50.741Z,68.88
2022-10-10T22:14:17.953Z,68.93
2022-10-10T22:16:44.886Z,68.14
2022-10-10T22:19:11.796Z,68.41
2022-10-10T22:21:38.816Z,68.66
2022-10-10T22:24:07.448Z,68.35
2022-10-10T22:26:35.457Z,68.58
2022-10-10T22:29:03.231Z,69.04
2022-10-10T22:31:30.317Z,68.46
2022-10-10T22:33:57.655Z,68.63
2022-10-10T22:36:24.898Z,68.28
2022-10-10T22:38:52.284Z,68.04
2022-10-10T22:41:19.247Z,68.01
2022-10-10T22:43:46.254Z,68.73
2022-10-10T22:46:13.730Z,68.08
2022-10-10T22:48:40.752Z,68.57
2022-10-10T22:51:16.310Z,68.78
2022-10-10T22:53:44.763Z,69.04
2022-10-10T22:56:15.618Z,68.40
2022-10-10T22:58:43.443Z,68.95
2022-10-10T23:01:15.281Z,68.23
2022-10-10T23:03:42.830Z,68.78
2022-10-10T23:06:10.135Z,68.78
2022-10-10T23:08:37.373Z,69.06
2022-10-10T23:11:04.620Z,68.52
2022-10-10T23:13:32.196Z,69.19
2022-10-10T23:15:59.447Z,68.93
2022-10-10T23:18:28.513Z,69.37
2022-10-10T23:20:55.623Z,69.19
2022-10-10T23:23:22.671Z,69.42
2022-10-10T23:25:49.976Z,69.40
2022-10-10T23:28:17.824Z,69.33
2022-10-10T23:30:47.202Z,69.05
2022-10-10T23:33:15.681Z,69.17
2022-10-10T23:35:42.655Z,69.49
2022-10-10T23:38:09.620Z,68.85
2022-10-10T23:40:36.830Z,68.87
2022-10-10T23:43:04.094Z,68.78
2022-10-10T23:45:31.381Z,68.70
2022-10-10T23:47:58.385Z,68.73
2022-10-10T23:50:25.452Z,68.77
2022-10-10T23:52:52.556Z,68.39
2022-10-10T23:56:13.247Z,68.89
2022-10-10T23:58:53.352Z,69.05
